Aidamar — ICSJ — position and weather

sailwx.info

Track history (hours):
 
Tides and Currents Weather Stations Pressure Air Temp Water Temp Dewpoint Dewpoint Depression Visibility Wind Speed Wind Dir Waves Ship Positions

Aidamar

Last reported at 2017-Nov-16 22:56 UTC. Time now 2017-Nov-23 00:21 UTC.
Position N 10°17' W 075°53'.

Length 253 m; draft 7.3 m.

Type: Passenger vessel. MMSI: 247312900.

Date/timePositionNaut miles runAvg speedWind from/ knotsBaromVisibWave heightAir tempDewpointWater temp
2017-Nov-16 22:56N 10°17' W 075°53'817.7
2017-Nov-16 22:30N 10°18' W 075°45'816.6
2017-Nov-16 22:00N 10°18' W 075°37'511.1
2017-Nov-16 21:30N 10°21' W 075°32'3 6.9
2017-Nov-16 21:00N 10°24' W 075°32'0 0.0
2017-Nov-16 20:27N 10°24' W 075°32'0 0.0
2017-Nov-16 20:00N 10°24' W 075°32'0 0.0
2017-Nov-16 19:30N 10°24' W 075°32'0 0.0
2017-Nov-16 19:00N 10°24' W 075°32'0 0.0
2017-Nov-16 18:28N 10°24' W 075°32'0 0.0
2017-Nov-16 17:55N 10°24' W 075°32'0 0.0
2017-Nov-16 17:25N 10°24' W 075°32'0 0.0
2017-Nov-16 17:00N 10°24' W 075°32'0 0.0
2017-Nov-16 16:29N 10°24' W 075°32'0 0.0
2017-Nov-16 16:00N 10°24' W 075°32'0 0.0
2017-Nov-16 15:31N 10°24' W 075°32'0 0.0
2017-Nov-16 14:55N 10°24' W 075°32'0 0.0
2017-Nov-16 14:25N 10°24' W 075°32'0 0.0
2017-Nov-16 13:58N 10°24' W 075°32'0 0.0
2017-Nov-16 13:28N 10°24' W 075°32'0 0.4
2017-Nov-16 13:00N 10°24' W 075°32'4 8.0
2017-Nov-16 12:30N 10°20' W 075°32'510.4
2017-Nov-16 12:00N 10°19' W 075°38'815.8
2017-Nov-16 11:30N 10°24' W 075°43'917.7
2017-Nov-16 11:00N 10°33' W 075°43'  
2017-Nov-10 08:36N 25°53' W 077°42'216.2
2017-Nov-10 08:30N 25°53' W 077°44'816.2
2017-Nov-10 08:00N 25°56' W 077°53'816.2
2017-Nov-10 07:30N 25°58' W 078°01'816.4
2017-Nov-10 06:59N 26°01' W 078°10'6215.0
2017-Nov-10 02:52N 26°11' W 079°18'616.1
2017-Nov-10 02:30N 26°08' W 079°24'1616.1
2017-Nov-10 01:31N 25°60' W 079°39'816.3
2017-Nov-10 01:01N 25°55' W 079°47'816.5
2017-Nov-10 00:31N 25°51' W 079°55'815.7
2017-Nov-10 00:00N 25°47' W 080°02'510.0
2017-Nov-09 23:30N 25°46' W 080°08'3 5.7
2017-Nov-09 23:00N 25°46' W 080°11'0 0.0
2017-Nov-09 22:28N 25°46' W 080°11'0 0.0
2017-Nov-09 21:58N 25°46' W 080°11'0 0.0
2017-Nov-09 21:28N 25°46' W 080°11'0 0.0
2017-Nov-09 20:58N 25°46' W 080°11'0 0.0
2017-Nov-09 20:28N 25°46' W 080°11'0 0.0
2017-Nov-09 19:58N 25°46' W 080°11'0 0.0
2017-Nov-09 19:28N 25°46' W 080°11'0 0.0
2017-Nov-09 18:58N 25°46' W 080°11'0 0.0
2017-Nov-09 18:28N 25°46' W 080°11'0 0.0
2017-Nov-09 17:58N 25°46' W 080°11'0 0.0
2017-Nov-09 17:28N 25°46' W 080°11'0 0.0
2017-Nov-09 16:58N 25°46' W 080°11'0 0.0
2017-Nov-09 16:28N 25°46' W 080°11'0 0.0
2017-Nov-09 15:58N 25°46' W 080°11'0 0.0
2017-Nov-09 15:28N 25°46' W 080°11'0 0.0
2017-Nov-09 14:58N 25°46' W 080°11'0 0.0
2017-Nov-09 14:28N 25°46' W 080°11'0 0.0
2017-Nov-09 13:58N 25°46' W 080°11'0 0.0
2017-Nov-09 13:28N 25°46' W 080°11'0 0.0
2017-Nov-09 12:52N 25°46' W 080°11'0 0.0
2017-Nov-09 12:30N 25°46' W 080°11'1 1.9
2017-Nov-09 12:00N 25°46' W 080°10'4 7.2
2017-Nov-09 11:30N 25°46' W 080°06'510.9
2017-Nov-09 11:00N 25°49' W 080°01'611.8
2017-Nov-09 10:30N 25°55' W 079°58'715.0
2017-Nov-09 10:01N 26°02' W 079°57'816.7
2017-Nov-09 09:30N 26°10' W 079°56'816.6
2017-Nov-09 09:00N 26°19' W 079°56'816.0
2017-Nov-09 08:30N 26°27' W 079°56'2413.4
2017-Nov-09 06:42N 26°51' W 079°55'313.7
2017-Nov-09 06:30N 26°54' W 079°55'713.6
2017-Nov-09 05:58N 27°01' W 079°54'  
Track history (hours):
 
Tides and Currents Weather Stations Pressure Air Temp Water Temp Dewpoint Dewpoint Depression Visibility Wind Speed Wind Dir Waves Ship Positions

Aidamar

Last reported at 2017-Nov-16 22:56 UTC. Time now 2017-Nov-23 00:21 UTC.
Position N 10°17' W 075°53'.

Length 253 m; draft 7.3 m.

Type: Passenger vessel. MMSI: 247312900.

Date/timePositionNaut miles runAvg speedWind from/ knotsBaromVisibWave heightAir tempDewpointWater temp
2017-Nov-16 22:56N 10°17' W 075°53'817.7
2017-Nov-16 22:30N 10°18' W 075°45'816.6
2017-Nov-16 22:00N 10°18' W 075°37'511.1
2017-Nov-16 21:30N 10°21' W 075°32'3 6.9
2017-Nov-16 21:00N 10°24' W 075°32'0 0.0
2017-Nov-16 20:27N 10°24' W 075°32'0 0.0
2017-Nov-16 20:00N 10°24' W 075°32'0 0.0
2017-Nov-16 19:30N 10°24' W 075°32'0 0.0
2017-Nov-16 19:00N 10°24' W 075°32'0 0.0
2017-Nov-16 18:28N 10°24' W 075°32'0 0.0
2017-Nov-16 17:55N 10°24' W 075°32'0 0.0
2017-Nov-16 17:25N 10°24' W 075°32'0 0.0
2017-Nov-16 17:00N 10°24' W 075°32'0 0.0
2017-Nov-16 16:29N 10°24' W 075°32'0 0.0
2017-Nov-16 16:00N 10°24' W 075°32'0 0.0
2017-Nov-16 15:31N 10°24' W 075°32'0 0.0
2017-Nov-16 14:55N 10°24' W 075°32'0 0.0
2017-Nov-16 14:25N 10°24' W 075°32'0 0.0
2017-Nov-16 13:58N 10°24' W 075°32'0 0.0
2017-Nov-16 13:28N 10°24' W 075°32'0 0.4
2017-Nov-16 13:00N 10°24' W 075°32'4 8.0
2017-Nov-16 12:30N 10°20' W 075°32'510.4
2017-Nov-16 12:00N 10°19' W 075°38'815.8
2017-Nov-16 11:30N 10°24' W 075°43'917.7
2017-Nov-16 11:00N 10°33' W 075°43'  
2017-Nov-10 08:36N 25°53' W 077°42'216.2
2017-Nov-10 08:30N 25°53' W 077°44'816.2
2017-Nov-10 08:00N 25°56' W 077°53'816.2
2017-Nov-10 07:30N 25°58' W 078°01'816.4
2017-Nov-10 06:59N 26°01' W 078°10'6215.0
2017-Nov-10 02:52N 26°11' W 079°18'616.1
2017-Nov-10 02:30N 26°08' W 079°24'1616.1
2017-Nov-10 01:31N 25°60' W 079°39'816.3
2017-Nov-10 01:01N 25°55' W 079°47'816.5
2017-Nov-10 00:31N 25°51' W 079°55'815.7
2017-Nov-10 00:00N 25°47' W 080°02'510.0
2017-Nov-09 23:30N 25°46' W 080°08'3 5.7
2017-Nov-09 23:00N 25°46' W 080°11'0 0.0
2017-Nov-09 22:28N 25°46' W 080°11'0 0.0
2017-Nov-09 21:58N 25°46' W 080°11'0 0.0
2017-Nov-09 21:28N 25°46' W 080°11'0 0.0
2017-Nov-09 20:58N 25°46' W 080°11'0 0.0
2017-Nov-09 20:28N 25°46' W 080°11'0 0.0
2017-Nov-09 19:58N 25°46' W 080°11'0 0.0
2017-Nov-09 19:28N 25°46' W 080°11'0 0.0
2017-Nov-09 18:58N 25°46' W 080°11'0 0.0
2017-Nov-09 18:28N 25°46' W 080°11'0 0.0
2017-Nov-09 17:58N 25°46' W 080°11'0 0.0
2017-Nov-09 17:28N 25°46' W 080°11'0 0.0
2017-Nov-09 16:58N 25°46' W 080°11'0 0.0
2017-Nov-09 16:28N 25°46' W 080°11'0 0.0
2017-Nov-09 15:58N 25°46' W 080°11'0 0.0
2017-Nov-09 15:28N 25°46' W 080°11'0 0.0
2017-Nov-09 14:58N 25°46' W 080°11'0 0.0
2017-Nov-09 14:28N 25°46' W 080°11'0 0.0
2017-Nov-09 13:58N 25°46' W 080°11'0 0.0
2017-Nov-09 13:28N 25°46' W 080°11'0 0.0
2017-Nov-09 12:52N 25°46' W 080°11'0 0.0
2017-Nov-09 12:30N 25°46' W 080°11'1 1.9
2017-Nov-09 12:00N 25°46' W 080°10'4 7.2
2017-Nov-09 11:30N 25°46' W 080°06'510.9
2017-Nov-09 11:00N 25°49' W 080°01'611.8
2017-Nov-09 10:30N 25°55' W 079°58'715.0
2017-Nov-09 10:01N 26°02' W 079°57'816.7
2017-Nov-09 09:30N 26°10' W 079°56'816.6
2017-Nov-09 09:00N 26°19' W 079°56'816.0
2017-Nov-09 08:30N 26°27' W 079°56'2413.4
2017-Nov-09 06:42N 26°51' W 079°55'313.7
2017-Nov-09 06:30N 26°54' W 079°55'713.6
2017-Nov-09 05:58N 27°01' W 079°54'  

Dump ship's entire track history